Jamaica, NY (11436)

11:02 PM EST on November 26, 2014 (GMT -0500)
Floral Park, The Original 11001 Wx Site | Change Station
CLOSE
Current Station
Personal Weather Station
Location: Floral Park, NY
Elevation: 103 ft
Nearby Weather Stations

Elev 103 ft 40.73 °N, 73.71 °W | Updated 4 seconds ago

Light Rain
Light Rain Snow
33.5 °F
Feels Like 24 °F
N
13.0
Wind Variable Wind from NE
Gusts 18.0 mph

Today
High -- | Low -- °F
--% Chance of Precip.
Yesterday
High -- | Low -- °F
Precip. -- in
6:54 AM 4:30 PM
Waxing Crescent, 25% visible
Pressure 29.81 in
Visibility 10.0 miles
Clouds Overcast 1100 ft
Windchill 24 °F
Dew Point 32 °F
Humidity 95%
Rainfall 0.11 in
Snow Depth Not available.
UV 0 out of 12
Pollen .10 out of 12
Air Quality Not available.
Flu Activity Not available.
METAR KJFK 270351Z 34016KT 10SM -RASN OVC011 02/00 A2981 RMK AO2 SLP094 P0001 T00220000 $

More Conditions Fewer Conditions

Pressure 29.81 in
Visibility 10.0 miles
Clouds Overcast 1100 ft
Windchill 24 °F
Dew Point 32 °F
Humidity 95%
Rainfall 0.11 in
Snow Depth Not available.
UV 0 out of 12
Pollen .10 out of 12
Air Quality Not available.
Flu Activity Not available.
METAR KJFK 270351Z 34016KT 10SM -RASN OVC011 02/00 A2981 RMK AO2 SLP094 P0001 T00220000 $

More Conditions Fewer Conditions

10-Day Weather Forecast

Almanac

Astronomy

Nov. 26, 2014 Rise Set
Actual Time
Civil Twilight
Nautical Twilight
Astronomical Twilight
Moon
Length of Visible Light
Length of Day
Tomorrow will be .
, % of the Moon is Illuminated

Today's Extremes

State Highs State Lows

Community

WunderPhotos

Upload Photos

1,773,958 photos uploaded!

WunderBlogs® & News

Nearby

Air Quality

  Air Quality AQ Index Pollutant
Not available.

Snow Depth

Station Depth Elevation

Earthquake Activity

City Distance Mag. Time & Date
Minimum magnitude displayed is 2.5.

Coastal Water Temperatures

Place Temperature

Nearby Weather Stations